Aérodrome :
LOGIN :

S'inscrire | Disclaimer

   EN    FR    IT 

 










Légende :    VFR   VFR Marginal   IFR   IFR Intensif   IFR Très Intensif
Visi : 
Plafond : 
>= 8 km
>= 3000ft
5 à 8 km
1000 à 3000 ft
1500m à 5 km
500 à 1000 ft
800 à 1500m
200 à 500 ft
< 800m
< 200 ft
Symboles :   Orages  Brouillard  Fortes neiges  Fortes précipitations  Vent > 20 kt
SIGMETs :   Divers  Orages  Givrage  Turbulence  Onde Orograph.  Cendres Volcan.






- Altitude de l'aérodrome : 461 ft
- Code IATA : WIE


ETOU - Wiesbaden Army

DERNIER METAR :
  • 280756Z AUTO 07013KT 9999 CLR 17/06 A3045 RMK AO2 SLP311 T01720064 $

METARs EXPIRÉS :
  • 280656Z AUTO 04008KT 9999 CLR 17/07 A3044 RMK AO2 SLP307 T01660070 $
  • 280556Z AUTO 03005KT 9999 CLR 15/07 A3044 RMK AO2 SLP307 T01530071 10172 20144 52010 $

TAF AMD TAF ETOU
Valide du 28 à 07h jusqu'au 29 à 10h UTC


280717Z 2807/2910 02008KT 9999 SKC QNH3043INS
BECMG 2810/2811 03010G15KT 9999 SKC QNH3052INS TX28/2814Z TN08/2904Z



MET'MAP, la Météo Aéronautique d'un coup d'oeil ! - Copyright ORBIFLY Décembre 2007 - Disclaimer

ORBIFLY MET'MAP TEAM :

Programmation & Développement : Alexandra Zaïnal
Sur une idée originale de : Baudouin d'Aumeries
Assistance à la programmation : Marc-Olivier Méhu
Soutien technique & logistique : Manuel Goepfert

Contact : metmap@orbifly.com




SOURCES & CREDITS :

   NOAA